Climatologie pour Saint-Brevin les Pins
Jour • Résumé pour mars 17, 2017 Système :  Métrique    Anglais   Mixte
« - 1 jour
+ 1 jour »
Jour Semaine Mois Année Personnalisé
  Maximum : Minimum : Moyenne :
Température sous abri : 15.3 °C 6.9 °C 10.3 °C
Point de rosée : 9.7 °C 5.4 °C 7.8 °C
Humidité : 98 % 62 % 85 %
Vitesse du vent : 17.7 km/h 0.0 km/h 7.1 km/h
Rafale : 29.0 km/h - -
Direction :- - South
Pression : 1024.6 hPa 1020.5 hPa -
Précipitations : 0.0 mm    
Historical Graphs
 
 
Tableau de données pour mars 17, 2017
Heure Tempé Pt rosée Pression Vent Vitesse Rafale Humidité Taux pluie (/hr) Soleil
00:00 7.0 °C 6.7 °C 1020.9 hPa North 12.9 km/h 16.1 km/h 98 % 0.0 mm 0 W/m2
00:05 7.8 °C 7.5 °C 1020.9 hPa NE 8.0 km/h 20.9 km/h 98 % 0.0 mm 0 W/m2
00:10 8.1 °C 7.8 °C 1020.9 hPa NE 6.4 km/h 20.9 km/h 98 % 0.0 mm 0 W/m2
00:15 8.3 °C 8.0 °C 1020.5 hPa NE 4.8 km/h 16.1 km/h 98 % 0.0 mm 0 W/m2
00:25 8.4 °C 8.1 °C 1020.9 hPa NNE 9.7 km/h 17.7 km/h 98 % 0.0 mm 0 W/m2
00:30 8.6 °C 8.3 °C 1020.9 hPa ENE 12.9 km/h 17.7 km/h 98 % 0.0 mm 0 W/m2
00:40 8.7 °C 8.4 °C 1020.9 hPa NE 1.6 km/h 16.1 km/h 98 % 0.0 mm 0 W/m2
00:45 8.7 °C 8.4 °C 1020.9 hPa North 6.4 km/h 17.7 km/h 98 % 0.0 mm 0 W/m2
00:50 8.7 °C 8.4 °C 1020.9 hPa NNE 8.0 km/h 17.7 km/h 98 % 0.0 mm 0 W/m2
00:55 8.6 °C 8.3 °C 1021.2 hPa North 4.8 km/h 17.7 km/h 98 % 0.0 mm 0 W/m2
01:00 8.4 °C 8.1 °C 1021.2 hPa NNE 17.7 km/h 17.7 km/h 98 % 0.0 mm 0 W/m2
01:10 8.2 °C 7.9 °C 1021.2 hPa NNE 12.9 km/h 20.9 km/h 98 % 0.0 mm 0 W/m2
01:15 8.2 °C 7.9 °C 1021.2 hPa North 8.0 km/h 29.0 km/h 98 % 0.0 mm 0 W/m2
01:20 8.2 °C 7.9 °C 1021.2 hPa NNW 9.7 km/h 29.0 km/h 98 % 0.0 mm 0 W/m2
01:25 8.2 °C 7.9 °C 1021.2 hPa NE 4.8 km/h 24.1 km/h 98 % 0.0 mm 0 W/m2
01:30 8.2 °C 7.9 °C 1021.2 hPa East 12.9 km/h 24.1 km/h 98 % 0.0 mm 0 W/m2
01:35 8.3 °C 8.0 °C 1021.2 hPa ENE 14.5 km/h 22.5 km/h 98 % 0.0 mm 0 W/m2
01:40 8.3 °C 8.0 °C 1021.2 hPa NE 12.9 km/h 22.5 km/h 98 % 0.0 mm 0 W/m2
01:45 8.3 °C 8.0 °C 1021.2 hPa NNW 3.2 km/h 22.5 km/h 98 % 0.0 mm 0 W/m2
01:55 8.4 °C 8.1 °C 1021.2 hPa NNE 4.8 km/h 22.5 km/h 98 % 0.0 mm 0 W/m2
02:00 8.4 °C 8.1 °C 1021.2 hPa North 3.2 km/h 22.5 km/h 98 % 0.0 mm 0 W/m2
02:05 8.4 °C 8.1 °C 1021.2 hPa NNE 8.0 km/h 20.9 km/h 98 % 0.0 mm 0 W/m2
02:10 8.4 °C 8.1 °C 1021.2 hPa North 12.9 km/h 19.3 km/h 98 % 0.0 mm 0 W/m2
02:15 8.5 °C 8.2 °C 1021.2 hPa NE 4.8 km/h 20.9 km/h 98 % 0.0 mm 0 W/m2
02:20 8.6 °C 8.3 °C 1021.2 hPa NE 12.9 km/h 20.9 km/h 98 % 0.0 mm 0 W/m2
02:25 8.6 °C 8.3 °C 1021.2 hPa NE 9.7 km/h 24.1 km/h 98 % 0.0 mm 0 W/m2
02:30 8.6 °C 8.3 °C 1021.2 hPa NNE 3.2 km/h 24.1 km/h 98 % 0.0 mm 0 W/m2
02:35 8.7 °C 8.2 °C 1021.2 hPa ENE 1.6 km/h 17.7 km/h 97 % 0.0 mm 0 W/m2
02:40 8.7 °C 8.3 °C 1021.2 hPa NE 4.8 km/h 16.1 km/h 97 % 0.0 mm 0 W/m2
02:45 8.7 °C 8.3 °C 1021.2 hPa ENE 12.9 km/h 20.9 km/h 97 % 0.0 mm 0 W/m2
02:50 8.7 °C 8.3 °C 1020.9 hPa NE 3.2 km/h 20.9 km/h 97 % 0.0 mm 0 W/m2
02:55 8.8 °C 8.3 °C 1020.9 hPa NE 8.0 km/h 19.3 km/h 97 % 0.0 mm 0 W/m2
03:00 8.8 °C 8.3 °C 1020.9 hPa ENE 17.7 km/h 19.3 km/h 97 % 0.0 mm 0 W/m2
03:05 8.8 °C 8.3 °C 1020.9 hPa NE 8.0 km/h 19.3 km/h 97 % 0.0 mm 0 W/m2
03:10 8.8 °C 8.3 °C 1020.9 hPa ENE 12.9 km/h 19.3 km/h 97 % 0.0 mm 0 W/m2
03:15 8.8 °C 8.2 °C 1020.9 hPa North 4.8 km/h 17.7 km/h 96 % 0.0 mm 0 W/m2
03:20 8.8 °C 8.2 °C 1020.5 hPa NE 4.8 km/h 17.7 km/h 96 % 0.0 mm 0 W/m2
03:25 8.8 °C 8.2 °C 1020.5 hPa ENE 11.3 km/h 17.7 km/h 96 % 0.0 mm 0 W/m2
03:30 8.8 °C 8.2 °C 1020.5 hPa North 3.2 km/h 14.5 km/h 96 % 0.0 mm 0 W/m2
03:35 8.8 °C 8.2 °C 1020.9 hPa NE 4.8 km/h 16.1 km/h 96 % 0.0 mm 0 W/m2
03:40 8.8 °C 8.2 °C 1020.9 hPa North 8.0 km/h 17.7 km/h 96 % 0.0 mm 0 W/m2
03:45 8.8 °C 8.2 °C 1020.9 hPa NNE 4.8 km/h 17.7 km/h 96 % 0.0 mm 0 W/m2
03:50 8.8 °C 8.2 °C 1020.9 hPa NE 8.0 km/h 14.5 km/h 96 % 0.0 mm 0 W/m2
03:55 8.8 °C 8.2 °C 1021.2 hPa North 4.8 km/h 16.1 km/h 96 % 0.0 mm 0 W/m2
04:00 8.8 °C 8.2 °C 1021.2 hPa NE 16.1 km/h 16.1 km/h 96 % 0.0 mm 0 W/m2
04:10 8.8 °C 8.1 °C 1021.2 hPa North 8.0 km/h 16.1 km/h 95 % 0.0 mm 0 W/m2
04:20 8.8 °C 8.1 °C 1021.2 hPa NE 3.2 km/h 14.5 km/h 95 % 0.0 mm 0 W/m2
04:25 8.8 °C 8.1 °C 1021.2 hPa North 6.4 km/h 14.5 km/h 95 % 0.0 mm 0 W/m2
04:30 8.8 °C 8.1 °C 1021.2 hPa NNW 3.2 km/h 14.5 km/h 95 % 0.0 mm 0 W/m2
04:35 8.8 °C 8.1 °C 1021.6 hPa NNE 17.7 km/h 22.5 km/h 95 % 0.0 mm 0 W/m2
04:40 8.9 °C 8.1 °C 1021.6 hPa North 6.4 km/h 22.5 km/h 95 % 0.0 mm 0 W/m2
04:45 8.9 °C 8.1 °C 1021.6 hPa NNE 14.5 km/h 17.7 km/h 95 % 0.0 mm 0 W/m2
04:55 8.9 °C 8.1 °C 1021.6 hPa North 8.0 km/h 24.1 km/h 95 % 0.0 mm 0 W/m2
05:00 8.9 °C 8.1 °C 1021.9 hPa North 9.7 km/h 22.5 km/h 95 % 0.0 mm 0 W/m2
05:05 8.8 °C 7.9 °C 1021.6 hPa NNE 14.5 km/h 20.9 km/h 94 % 0.0 mm 0 W/m2
05:10 8.8 °C 7.9 °C 1021.6 hPa NE 16.1 km/h 20.9 km/h 94 % 0.0 mm 0 W/m2
05:15 8.8 °C 7.9 °C 1021.6 hPa NE 1.6 km/h 19.3 km/h 94 % 0.0 mm 0 W/m2
05:20 8.8 °C 7.9 °C 1021.9 hPa NNE 6.4 km/h 17.7 km/h 94 % 0.0 mm 0 W/m2
05:25 8.8 °C 7.9 °C 1021.9 hPa NNE 11.3 km/h 24.1 km/h 94 % 0.0 mm 0 W/m2
05:30 8.8 °C 7.8 °C 1021.9 hPa North 4.8 km/h 24.1 km/h 93 % 0.0 mm 0 W/m2
05:35 8.8 °C 7.8 °C 1021.9 hPa NNE 4.8 km/h 20.9 km/h 93 % 0.0 mm 0 W/m2
05:40 8.8 °C 7.8 °C 1021.9 hPa NNW 9.7 km/h 20.9 km/h 93 % 0.0 mm 0 W/m2
05:45 8.9 °C 7.8 °C 1021.9 hPa North 4.8 km/h 20.9 km/h 93 % 0.0 mm 0 W/m2
05:50 8.9 °C 7.8 °C 1021.9 hPa NNE 1.6 km/h 17.7 km/h 93 % 0.0 mm 0 W/m2
05:55 8.9 °C 7.8 °C 1021.9 hPa NE 11.3 km/h 16.1 km/h 93 % 0.0 mm 0 W/m2
06:00 8.9 °C 7.7 °C 1021.9 hPa NE 3.2 km/h 17.7 km/h 92 % 0.0 mm 0 W/m2
06:10 8.8 °C 7.6 °C 1021.9 hPa NE 4.8 km/h 16.1 km/h 92 % 0.0 mm 0 W/m2
06:15 8.8 °C 7.6 °C 1021.9 hPa NE 6.4 km/h 16.1 km/h 92 % 0.0 mm 0 W/m2
06:25 8.8 °C 7.4 °C 1021.9 hPa ENE 3.2 km/h 11.3 km/h 91 % 0.0 mm 0 W/m2
06:30 8.8 °C 7.4 °C 1021.9 hPa Calm   11.3 km/h 91 % 0.0 mm 0 W/m2
06:40 8.6 °C 7.2 °C 1021.9 hPa NE 1.6 km/h 9.7 km/h 91 % 0.0 mm 0 W/m2
06:45 8.4 °C 7.2 °C 1021.9 hPa Calm   6.4 km/h 92 % 0.0 mm 0 W/m2
06:50 8.4 °C 7.2 °C 1022.2 hPa NNE 1.6 km/h 6.4 km/h 92 % 0.0 mm 0 W/m2
06:55 8.4 °C 7.2 °C 1022.2 hPa Calm   6.4 km/h 92 % 0.0 mm 0 W/m2
07:00 8.4 °C 7.2 °C 1022.2 hPa Calm   8.0 km/h 92 % 0.0 mm 0 W/m2
07:05 8.3 °C 7.1 °C 1022.2 hPa Calm   8.0 km/h 92 % 0.0 mm 0 W/m2
07:10 8.3 °C 7.1 °C 1022.2 hPa NNE 3.2 km/h 4.8 km/h 92 % 0.0 mm 0 W/m2
07:15 8.2 °C 7.0 °C 1022.2 hPa Calm   4.8 km/h 92 % 0.0 mm 0 W/m2
07:20 7.9 °C 6.7 °C 1022.2 hPa Calm   3.2 km/h 92 % 0.0 mm 5 W/m2
07:25 7.5 °C 6.4 °C 1022.2 hPa NNE 1.6 km/h 4.8 km/h 93 % 0.0 mm 7 W/m2
07:30 7.2 °C 6.2 °C 1022.2 hPa Calm   4.8 km/h 93 % 0.0 mm 9 W/m2
07:40 6.9 °C 6.2 °C 1022.6 hPa Calm   3.2 km/h 95 % 0.0 mm 16 W/m2
07:45 7.1 °C 6.3 °C 1022.6 hPa Calm   3.2 km/h 95 % 0.0 mm 25 W/m2
07:50 7.1 °C 6.3 °C 1022.6 hPa North 3.2 km/h 4.8 km/h 95 % 0.0 mm 26 W/m2
07:55 7.2 °C 6.4 °C 1022.6 hPa Calm   6.4 km/h 95 % 0.0 mm 28 W/m2
08:00 7.4 °C 6.8 °C 1022.6 hPa North 1.6 km/h 6.4 km/h 96 % 0.0 mm 35 W/m2
08:05 7.8 °C 7.0 °C 1022.6 hPa North 3.2 km/h 8.0 km/h 95 % 0.0 mm 40 W/m2
08:10 8.1 °C 7.3 °C 1022.9 hPa North 1.6 km/h 8.0 km/h 95 % 0.0 mm 40 W/m2
08:15 8.3 °C 7.5 °C 1022.9 hPa Calm   6.4 km/h 95 % 0.0 mm 53 W/m2
08:20 8.4 °C 7.7 °C 1022.9 hPa NNW 4.8 km/h 6.4 km/h 95 % 0.0 mm 56 W/m2
08:25 8.8 °C 8.0 °C 1022.9 hPa NNW 1.6 km/h 8.0 km/h 95 % 0.0 mm 60 W/m2
08:30 9.0 °C 8.2 °C 1022.9 hPa NNW 4.8 km/h 9.7 km/h 95 % 0.0 mm 63 W/m2
08:40 9.3 °C 8.4 °C 1022.9 hPa NNW 8.0 km/h 9.7 km/h 94 % 0.0 mm 74 W/m2
08:45 9.4 °C 8.3 °C 1022.9 hPa Calm   9.7 km/h 93 % 0.0 mm 84 W/m2
08:50 9.6 °C 8.5 °C 1023.2 hPa North 4.8 km/h 9.7 km/h 93 % 0.0 mm 86 W/m2
08:55 9.7 °C 8.5 °C 1023.2 hPa North 1.6 km/h 14.5 km/h 92 % 0.0 mm 84 W/m2
09:00 9.8 °C 8.4 °C 1023.2 hPa North 3.2 km/h 14.5 km/h 91 % 0.0 mm 90 W/m2
09:05 9.9 °C 8.5 °C 1023.2 hPa NNE 6.4 km/h 14.5 km/h 91 % 0.0 mm 107 W/m2
09:10 10.0 °C 8.4 °C 1023.2 hPa North 3.2 km/h 14.5 km/h 90 % 0.0 mm 162 W/m2
09:15 10.2 °C 8.7 °C 1023.2 hPa North 8.0 km/h 9.7 km/h 90 % 0.0 mm 160 W/m2
09:25 10.4 °C 8.5 °C 1023.2 hPa North 11.3 km/h 14.5 km/h 88 % 0.0 mm 141 W/m2
09:30 10.4 °C 8.5 °C 1023.6 hPa North 9.7 km/h 17.7 km/h 88 % 0.0 mm 130 W/m2
09:40 10.6 °C 8.5 °C 1023.6 hPa NW 6.4 km/h 17.7 km/h 87 % 0.0 mm 134 W/m2
09:45 10.6 °C 8.4 °C 1023.6 hPa North 6.4 km/h 14.5 km/h 86 % 0.0 mm 178 W/m2
09:50 10.7 °C 8.3 °C 1023.6 hPa North 9.7 km/h 16.1 km/h 85 % 0.0 mm 153 W/m2
09:55 10.8 °C 8.4 °C 1023.6 hPa North 9.7 km/h 16.1 km/h 85 % 0.0 mm 149 W/m2
10:00 10.7 °C 8.0 °C 1023.6 hPa NNE 11.3 km/h 17.7 km/h 83 % 0.0 mm 128 W/m2
10:05 10.7 °C 7.9 °C 1023.6 hPa North 6.4 km/h 17.7 km/h 83 % 0.0 mm 118 W/m2
10:10 10.6 °C 7.6 °C 1023.6 hPa ENE 11.3 km/h 17.7 km/h 82 % 0.0 mm 141 W/m2
10:15 10.6 °C 7.4 °C 1023.6 hPa NNE 8.0 km/h 17.7 km/h 81 % 0.0 mm 144 W/m2
10:20 10.6 °C 7.7 °C 1023.6 hPa NNE 8.0 km/h 17.7 km/h 82 % 0.0 mm 142 W/m2
10:25 10.7 °C 7.7 °C 1023.6 hPa NNE 8.0 km/h 17.7 km/h 82 % 0.0 mm 169 W/m2
10:30 10.8 °C 7.7 °C 1023.6 hPa NE 3.2 km/h 16.1 km/h 81 % 0.0 mm 179 W/m2
10:35 11.0 °C 7.9 °C 1023.6 hPa NE 14.5 km/h 16.1 km/h 81 % 0.0 mm 204 W/m2
10:40 11.2 °C 7.8 °C 1023.6 hPa ENE 6.4 km/h 17.7 km/h 80 % 0.0 mm 197 W/m2
10:45 11.2 °C 7.7 °C 1023.6 hPa NNE 6.4 km/h 17.7 km/h 79 % 0.0 mm 213 W/m2
10:50 11.3 °C 7.8 °C 1023.6 hPa NE 8.0 km/h 16.1 km/h 79 % 0.0 mm 220 W/m2
10:55 11.3 °C 7.8 °C 1023.6 hPa NE 3.2 km/h 16.1 km/h 79 % 0.0 mm 232 W/m2
11:00 11.4 °C 7.9 °C 1023.6 hPa North 11.3 km/h 16.1 km/h 79 % 0.0 mm 229 W/m2
11:05 11.7 °C 8.4 °C 1023.9 hPa NE 9.7 km/h 16.1 km/h 80 % 0.0 mm 165 W/m2
11:10 11.4 °C 7.9 °C 1023.9 hPa North 1.6 km/h 17.7 km/h 79 % 0.0 mm 148 W/m2
11:15 11.3 °C 8.0 °C 1023.9 hPa North 6.4 km/h 17.7 km/h 80 % 0.0 mm 141 W/m2
11:20 11.3 °C 7.8 °C 1023.9 hPa NNE 9.7 km/h 14.5 km/h 79 % 0.0 mm 139 W/m2
11:25 11.3 °C 8.0 °C 1024.3 hPa NE 6.4 km/h 14.5 km/h 80 % 0.0 mm 134 W/m2
11:30 11.3 °C 8.0 °C 1024.3 hPa NNW 4.8 km/h 16.1 km/h 80 % 0.0 mm 139 W/m2
11:35 11.3 °C 7.8 °C 1024.3 hPa NNE 6.4 km/h 20.9 km/h 79 % 0.0 mm 135 W/m2
11:40 11.2 °C 7.7 °C 1024.3 hPa NNW 11.3 km/h 20.9 km/h 79 % 0.0 mm 148 W/m2
11:45 11.2 °C 7.7 °C 1024.3 hPa North 3.2 km/h 17.7 km/h 79 % 0.0 mm 155 W/m2
11:50 11.4 °C 8.1 °C 1024.3 hPa North 11.3 km/h 17.7 km/h 80 % 0.0 mm 176 W/m2
11:55 11.3 °C 7.6 °C 1024.3 hPa NNE 11.3 km/h 19.3 km/h 78 % 0.0 mm 181 W/m2
12:00 11.4 °C 7.9 °C 1024.3 hPa NE 12.9 km/h 19.3 km/h 79 % 0.0 mm 207 W/m2
12:05 11.8 °C 8.3 °C 1024.3 hPa NNE 9.7 km/h 16.1 km/h 79 % 0.0 mm 287 W/m2
12:10 12.0 °C 7.9 °C 1024.3 hPa NNE 6.4 km/h 14.5 km/h 76 % 0.0 mm 343 W/m2
12:15 12.1 °C 7.8 °C 1024.3 hPa ENE 6.4 km/h 16.1 km/h 75 % 0.0 mm 267 W/m2
12:25 12.3 °C 8.0 °C 1024.6 hPa North 4.8 km/h 17.7 km/h 75 % 0.0 mm 258 W/m2
12:30 12.6 °C 8.6 °C 1024.6 hPa NNW 9.7 km/h 16.1 km/h 77 % 0.0 mm 234 W/m2
12:40 12.2 °C 8.3 °C 1024.6 hPa North 11.3 km/h 16.1 km/h 77 % 0.0 mm 236 W/m2
12:45 12.3 °C 8.0 °C 1024.6 hPa NNE 8.0 km/h 16.1 km/h 75 % 0.0 mm 234 W/m2
12:50 12.3 °C 7.8 °C 1024.3 hPa North 6.4 km/h 11.3 km/h 74 % 0.0 mm 230 W/m2
12:55 12.3 °C 7.8 °C 1024.3 hPa NNE 9.7 km/h 12.9 km/h 74 % 0.0 mm 255 W/m2
13:00 12.5 °C 8.2 °C 1024.3 hPa NE 6.4 km/h 12.9 km/h 75 % 0.0 mm 225 W/m2
13:05 12.3 °C 7.8 °C 1024.3 hPa North 6.4 km/h 14.5 km/h 74 % 0.0 mm 253 W/m2
13:10 12.6 °C 8.0 °C 1024.3 hPa North 8.0 km/h 14.5 km/h 74 % 0.0 mm 309 W/m2
13:15 12.9 °C 8.4 °C 1024.3 hPa NNW 6.4 km/h 12.9 km/h 74 % 0.0 mm 315 W/m2
13:25 13.0 °C 8.5 °C 1023.9 hPa NNW 8.0 km/h 14.5 km/h 74 % 0.0 mm 341 W/m2
13:30 13.2 °C 8.1 °C 1023.9 hPa NE 1.6 km/h 17.7 km/h 71 % 0.0 mm 304 W/m2
13:35 13.1 °C 8.0 °C 1023.9 hPa NW 9.7 km/h 17.7 km/h 71 % 0.0 mm 283 W/m2
13:40 13.2 °C 7.9 °C 1023.9 hPa North 8.0 km/h 14.5 km/h 70 % 0.0 mm 784 W/m2
13:45 14.2 °C 8.8 °C 1023.6 hPa North 1.6 km/h 9.7 km/h 70 % 0.0 mm 779 W/m2
13:55 14.8 °C 9.6 °C 1023.6 hPa North 9.7 km/h 16.1 km/h 71 % 0.0 mm 431 W/m2
14:00 14.8 °C 8.3 °C 1023.6 hPa Calm   16.1 km/h 65 % 0.0 mm 710 W/m2
14:10 14.8 °C 8.5 °C 1023.2 hPa NNW 8.0 km/h 11.3 km/h 66 % 0.0 mm 719 W/m2
14:15 15.1 °C 7.8 °C 1023.2 hPa NW 6.4 km/h 11.3 km/h 62 % 0.0 mm 700 W/m2
14:20 14.9 °C 7.7 °C 1023.2 hPa WNW 1.6 km/h 11.3 km/h 62 % 0.0 mm 657 W/m2
14:25 14.9 °C 8.0 °C 1023.2 hPa NW 4.8 km/h 12.9 km/h 63 % 0.0 mm 638 W/m2
14:30 14.8 °C 9.4 °C 1023.6 hPa WNW 8.0 km/h 12.9 km/h 70 % 0.0 mm 645 W/m2
14:35 14.8 °C 8.5 °C 1023.6 hPa NW 11.3 km/h 16.1 km/h 66 % 0.0 mm 624 W/m2
14:40 15.2 °C 9.7 °C 1023.6 hPa NNW 9.7 km/h 16.1 km/h 70 % 0.0 mm 548 W/m2
14:45 15.1 °C 8.5 °C 1023.6 hPa NNE 8.0 km/h 19.3 km/h 65 % 0.0 mm 578 W/m2
14:50 15.1 °C 8.6 °C 1023.6 hPa NNW 6.4 km/h 19.3 km/h 65 % 0.0 mm 496 W/m2
14:55 15.1 °C 8.7 °C 1023.6 hPa NW 12.9 km/h 16.1 km/h 66 % 0.0 mm 492 W/m2
15:05 14.9 °C 8.1 °C 1023.6 hPa NNE 6.4 km/h 12.9 km/h 64 % 0.0 mm 524 W/m2
15:10 14.7 °C 8.4 °C 1023.2 hPa NW 3.2 km/h 12.9 km/h 66 % 0.0 mm 504 W/m2
15:15 15.1 °C 8.8 °C 1023.2 hPa NW 6.4 km/h 20.9 km/h 66 % 0.0 mm 478 W/m2
15:20 15.3 °C 8.7 °C 1023.2 hPa North 9.7 km/h 20.9 km/h 65 % 0.0 mm 480 W/m2
15:25 15.0 °C 8.2 °C 1023.2 hPa NNE 3.2 km/h 12.9 km/h 64 % 0.0 mm 418 W/m2
15:30 14.7 °C 7.5 °C 1022.9 hPa WNW 1.6 km/h 12.9 km/h 62 % 0.0 mm 496 W/m2
15:35 14.1 °C 8.2 °C 1023.2 hPa West 8.0 km/h 11.3 km/h 68 % 0.0 mm 520 W/m2
15:40 13.9 °C 8.3 °C 1022.9 hPa WSW 8.0 km/h 11.3 km/h 69 % 0.0 mm 404 W/m2
15:50 13.9 °C 8.5 °C 1023.2 hPa WNW 8.0 km/h 16.1 km/h 70 % 0.0 mm 413 W/m2
15:55 13.4 °C 8.8 °C 1022.9 hPa West 6.4 km/h 16.1 km/h 74 % 0.0 mm 385 W/m2
16:00 13.3 °C 8.8 °C 1022.9 hPa WNW 4.8 km/h 16.1 km/h 74 % 0.0 mm 325 W/m2
16:10 13.8 °C 9.2 °C 1022.9 hPa WSW 9.7 km/h 16.1 km/h 74 % 0.0 mm 369 W/m2
16:15 13.8 °C 9.0 °C 1022.9 hPa West 6.4 km/h 17.7 km/h 73 % 0.0 mm 387 W/m2
16:20 13.8 °C 9.0 °C 1022.9 hPa NW 6.4 km/h 19.3 km/h 73 % 0.0 mm 406 W/m2
16:25 13.5 °C 9.0 °C 1022.9 hPa West 8.0 km/h 19.3 km/h 74 % 0.0 mm 394 W/m2
16:30 13.6 °C 9.0 °C 1023.2 hPa West 11.3 km/h 19.3 km/h 74 % 0.0 mm 301 W/m2
16:40 13.4 °C 9.2 °C 1022.9 hPa NW 4.8 km/h 20.9 km/h 76 % 0.0 mm 258 W/m2
16:45 13.7 °C 8.9 °C 1022.9 hPa WNW 6.4 km/h 19.3 km/h 73 % 0.0 mm 271 W/m2
16:50 13.6 °C 8.8 °C 1022.9 hPa West 9.7 km/h 19.3 km/h 73 % 0.0 mm 200 W/m2
16:55 13.1 °C 8.6 °C 1022.9 hPa NNW 6.4 km/h 19.3 km/h 74 % 0.0 mm 199 W/m2
17:00 12.9 °C 8.4 °C 1022.9 hPa WNW 14.5 km/h 17.7 km/h 74 % 0.0 mm 190 W/m2
17:05 13.1 °C 8.5 °C 1022.9 hPa NW 3.2 km/h 17.7 km/h 74 % 0.0 mm 209 W/m2
17:10 13.2 °C 8.4 °C 1022.9 hPa WNW 8.0 km/h 17.7 km/h 73 % 0.0 mm 195 W/m2
17:15 12.8 °C 7.9 °C 1022.9 hPa West 11.3 km/h 24.1 km/h 72 % 0.0 mm 188 W/m2
17:20 12.7 °C 8.1 °C 1022.9 hPa WNW 17.7 km/h 24.1 km/h 74 % 0.0 mm 176 W/m2
17:25 12.6 °C 8.0 °C 1022.9 hPa WNW 11.3 km/h 19.3 km/h 74 % 0.0 mm 174 W/m2
17:30 12.4 °C 7.9 °C 1022.9 hPa WNW 14.5 km/h 19.3 km/h 74 % 0.0 mm 165 W/m2
17:40 12.4 °C 7.7 °C 1022.9 hPa West 8.0 km/h 17.7 km/h 73 % 0.0 mm 104 W/m2
17:45 12.3 °C 7.6 °C 1022.9 hPa WNW 6.4 km/h 20.9 km/h 73 % 0.0 mm 123 W/m2
17:55 12.2 °C 7.5 °C 1022.9 hPa WNW 4.8 km/h 19.3 km/h 73 % 0.0 mm 77 W/m2
18:00 12.1 °C 8.0 °C 1022.9 hPa WNW 6.4 km/h 19.3 km/h 76 % 0.0 mm 79 W/m2
18:05 11.9 °C 7.6 °C 1022.9 hPa WNW 14.5 km/h 16.1 km/h 75 % 0.0 mm 84 W/m2
18:10 11.7 °C 7.4 °C 1022.9 hPa NW 6.4 km/h 19.3 km/h 75 % 0.0 mm 70 W/m2
18:15 11.6 °C 7.5 °C 1022.9 hPa NW 9.7 km/h 19.3 km/h 76 % 0.0 mm 69 W/m2
18:20 11.4 °C 7.3 °C 1023.2 hPa NW 9.7 km/h 19.3 km/h 76 % 0.0 mm 62 W/m2
18:25 11.2 °C 7.1 °C 1023.2 hPa WNW 8.0 km/h 22.5 km/h 76 % 0.0 mm 56 W/m2
18:30 11.1 °C 7.0 °C 1022.9 hPa NW 3.2 km/h 22.5 km/h 76 % 0.0 mm 51 W/m2
18:35 11.0 °C 7.1 °C 1022.9 hPa WNW 3.2 km/h 20.9 km/h 77 % 0.0 mm 44 W/m2
18:40 10.8 °C 7.1 °C 1022.9 hPa WNW 11.3 km/h 16.1 km/h 78 % 0.0 mm 35 W/m2
18:45 10.7 °C 7.2 °C 1022.9 hPa West 12.9 km/h 20.9 km/h 79 % 0.0 mm 30 W/m2
18:50 10.5 °C 7.0 °C 1022.9 hPa WNW 14.5 km/h 20.9 km/h 79 % 0.0 mm 25 W/m2
18:55 10.4 °C 7.1 °C 1022.9 hPa WNW 12.9 km/h 17.7 km/h 80 % 0.0 mm 19 W/m2
19:00 10.2 °C 6.9 °C 1022.9 hPa WNW 6.4 km/h 14.5 km/h 80 % 0.0 mm 12 W/m2
19:05 10.1 °C 6.9 °C 1022.9 hPa WNW 9.7 km/h 12.9 km/h 81 % 0.0 mm 9 W/m2
19:10 10.0 °C 7.1 °C 1022.9 hPa NW 6.4 km/h 12.9 km/h 82 % 0.0 mm 5 W/m2
19:15 9.9 °C 7.1 °C 1023.2 hPa NW 17.7 km/h 17.7 km/h 83 % 0.0 mm 0 W/m2
19:20 9.8 °C 7.0 °C 1023.2 hPa WNW 6.4 km/h 17.7 km/h 83 % 0.0 mm 0 W/m2
19:25 9.8 °C 7.0 °C 1023.2 hPa WNW 11.3 km/h 17.7 km/h 83 % 0.0 mm 0 W/m2
19:30 9.8 °C 7.1 °C 1023.2 hPa WNW 3.2 km/h 16.1 km/h 83 % 0.0 mm 0 W/m2
19:40 9.8 °C 7.2 °C 1022.9 hPa WNW 4.8 km/h 17.7 km/h 84 % 0.0 mm 0 W/m2
19:45 9.7 °C 7.1 °C 1022.9 hPa West 6.4 km/h 14.5 km/h 84 % 0.0 mm 0 W/m2
19:55 9.7 °C 7.3 °C 1022.9 hPa NW 4.8 km/h 12.9 km/h 85 % 0.0 mm 0 W/m2
20:00 9.6 °C 7.4 °C 1023.2 hPa WNW 12.9 km/h 12.9 km/h 86 % 0.0 mm 0 W/m2
20:05 9.6 °C 7.4 °C 1023.2 hPa WNW 6.4 km/h 12.9 km/h 86 % 0.0 mm 0 W/m2
20:20 9.6 °C 7.3 °C 1022.9 hPa NW 8.0 km/h 16.1 km/h 86 % 0.0 mm 0 W/m2
20:25 9.4 °C 7.4 °C 1022.9 hPa NW 6.4 km/h 11.3 km/h 87 % 0.0 mm 0 W/m2
20:30 9.4 °C 7.3 °C 1022.9 hPa WNW 3.2 km/h 12.9 km/h 87 % 0.0 mm 0 W/m2
20:40 9.3 °C 7.3 °C 1022.9 hPa WNW 3.2 km/h 12.9 km/h 87 % 0.0 mm 0 W/m2
20:45 9.3 °C 7.4 °C 1022.9 hPa NW 6.4 km/h 12.9 km/h 88 % 0.0 mm 0 W/m2
20:50 9.3 °C 7.4 °C 1022.9 hPa NW 6.4 km/h 12.9 km/h 88 % 0.0 mm 0 W/m2
20:55 9.2 °C 7.3 °C 1022.9 hPa WNW 6.4 km/h 11.3 km/h 88 % 0.0 mm 0 W/m2
21:00 9.3 °C 7.4 °C 1023.2 hPa NW 8.0 km/h 14.5 km/h 88 % 0.0 mm 0 W/m2
21:05 9.4 °C 7.5 °C 1023.2 hPa NW 12.9 km/h 14.5 km/h 88 % 0.0 mm 0 W/m2
21:10 9.4 °C 7.3 °C 1023.2 hPa NW 11.3 km/h 14.5 km/h 87 % 0.0 mm 0 W/m2
21:20 9.4 °C 7.3 °C 1022.9 hPa WNW 6.4 km/h 16.1 km/h 87 % 0.0 mm 0 W/m2
21:30 9.4 °C 7.3 °C 1023.2 hPa NW 11.3 km/h 22.5 km/h 87 % 0.0 mm 0 W/m2
21:40 9.4 °C 7.2 °C 1022.9 hPa WNW 12.9 km/h 20.9 km/h 86 % 0.0 mm 0 W/m2
21:45 9.4 °C 7.2 °C 1022.9 hPa WNW 9.7 km/h 20.9 km/h 86 % 0.0 mm 0 W/m2
21:50 9.3 °C 7.1 °C 1022.9 hPa NW 4.8 km/h 20.9 km/h 86 % 0.0 mm 0 W/m2
21:55 9.3 °C 7.3 °C 1022.9 hPa WNW 6.4 km/h 20.9 km/h 87 % 0.0 mm 0 W/m2
22:00 9.3 °C 7.1 °C 1022.9 hPa West 9.7 km/h 20.9 km/h 86 % 0.0 mm 0 W/m2
22:05 9.3 °C 7.1 °C 1022.9 hPa WNW 14.5 km/h 17.7 km/h 86 % 0.0 mm 0 W/m2
22:10 9.3 °C 7.1 °C 1023.2 hPa West 8.0 km/h 19.3 km/h 86 % 0.0 mm 0 W/m2
22:15 9.1 °C 7.1 °C 1023.2 hPa NW 4.8 km/h 19.3 km/h 87 % 0.0 mm 0 W/m2
22:20 9.1 °C 7.0 °C 1022.9 hPa NW 9.7 km/h 14.5 km/h 87 % 0.0 mm 0 W/m2
22:25 8.9 °C 6.9 °C 1023.2 hPa WNW 6.4 km/h 17.7 km/h 87 % 0.0 mm 0 W/m2
22:30 8.8 °C 6.8 °C 1023.2 hPa NNW 4.8 km/h 19.3 km/h 87 % 0.0 mm 0 W/m2
22:35 8.8 °C 6.6 °C 1023.2 hPa WNW 4.8 km/h 19.3 km/h 86 % 0.0 mm 0 W/m2
22:40 8.8 °C 6.6 °C 1023.2 hPa WNW 9.7 km/h 16.1 km/h 86 % 0.0 mm 0 W/m2
22:45 8.8 °C 6.4 °C 1023.2 hPa NNW 9.7 km/h 16.1 km/h 85 % 0.0 mm 0 W/m2
22:55 8.6 °C 6.2 °C 1022.9 hPa WNW 9.7 km/h 16.1 km/h 85 % 0.0 mm 0 W/m2
23:00 8.6 °C 6.2 °C 1022.9 hPa NW 3.2 km/h 16.1 km/h 85 % 0.0 mm 0 W/m2
23:05 8.6 °C 6.2 °C 1022.9 hPa NW 4.8 km/h 17.7 km/h 85 % 0.0 mm 0 W/m2
23:10 8.4 °C 6.1 °C 1023.2 hPa NW 8.0 km/h 17.7 km/h 85 % 0.0 mm 0 W/m2
23:15 8.3 °C 5.9 °C 1023.2 hPa NW 4.8 km/h 17.7 km/h 85 % 0.0 mm 0 W/m2
23:20 8.2 °C 5.8 °C 1023.2 hPa NW 6.4 km/h 17.7 km/h 85 % 0.0 mm 0 W/m2
23:30 8.1 °C 5.9 °C 1023.2 hPa NNW 3.2 km/h 19.3 km/h 86 % 0.0 mm 0 W/m2
23:40 7.8 °C 5.6 °C 1023.2 hPa WNW 6.4 km/h 12.9 km/h 86 % 0.0 mm 0 W/m2
23:45 7.8 °C 5.6 °C 1023.2 hPa NW 1.6 km/h 11.3 km/h 86 % 0.0 mm 0 W/m2
23:50 7.8 °C 5.6 °C 1023.2 hPa WNW 3.2 km/h 12.9 km/h 86 % 0.0 mm 0 W/m2
23:55 7.4 °C 5.4 °C 1023.2 hPa WNW 6.4 km/h 12.9 km/h 87 % 0.0 mm 0 W/m2
Avec l'autorisation de Weather Underground - 1.5 mb